This is the latest recevied weather packets stored in our database for station/object W3BRL. If no packets are shown the sender has not sent any weather packets the latest 1 day(s).
| Time | Temp. | Humidity | Pressure | Rain* | Wind** | Luminosity | Snow |
|---|---|---|---|---|---|---|---|
| 1778044591 | 15.56° C | 73% | 1006.4 hPa | 1.78 mm | - | 0 W/m² | - |
| 1778044287 | 16.11° C | 71% | 1006.5 hPa | 0 mm | - | 0 W/m² | - |
| 1778043682 | 16.67° C | 66% | 1006.7 hPa | 0 mm | - | 0 W/m² | - |
| 1778043379 | 17.22° C | 63% | 1006.6 hPa | 0 mm | - | 0 W/m² | - |
| 1778043075 | 17.78° C | 59% | 1006.7 hPa | 0 mm | - | 0 W/m² | - |
| 1778042470 | 18.89° C | 53% | 1006.4 hPa | 0 mm | - | 0 W/m² | - |
| 1778042167 | 18.89° C | 51% | 1006.4 hPa | 0 mm | - | 0 W/m² | - |
| 1778041564 | 19.44° C | 49% | 1006.2 hPa | 0 mm | - | 0 W/m² | - |
| 1778041262 | 18.89° C | 49% | 1005.9 hPa | 0 mm | - | 0 W/m² | - |
| 1778040354 | 18.89° C | 49% | 1005.8 hPa | 0 mm | - | 0 W/m² | - |
| 1778040050 | 18.89° C | 49% | 1005.8 hPa | 0 mm | - | 0 W/m² | - |
| 1778039444 | 18.89° C | 49% | 1005.7 hPa | 0 mm | - | 0 W/m² | - |
| 1778038838 | 19.44° C | 48% | 1005.6 hPa | 0 mm | - | 0 W/m² | - |
| 1778038536 | 19.44° C | 48% | 1005.6 hPa | 0 mm | - | 0 W/m² | - |
| 1778037930 | 19.44° C | 48% | 1005.7 hPa | 0 mm | - | 0 W/m² | - |
| 1778037627 | 19.44° C | 48% | 1005.7 hPa | 0 mm | - | 0 W/m² | - |
| 1778037021 | 19.44° C | 48% | 1005.9 hPa | 0 mm | - | 0 W/m² | - |
| 1778036719 | 19.44° C | 47% | 1005.9 hPa | 0 mm | - | 0 W/m² | - |
| 1778036113 | 19.44° C | 47% | 1005.8 hPa | 0 mm | - | 0 W/m² | - |
| 1778035506 | 19.44° C | 47% | 1005.7 hPa | 0 mm | - | 0 W/m² | - |
| 1778035202 | 19.44° C | 47% | 1005.8 hPa | 0 mm | - | 0 W/m² | - |
| 1778034899 | 19.44° C | 47% | 1005.9 hPa | 0 mm | - | 0 W/m² | - |
| 1778033991 | 20° C | 46% | 1005.8 hPa | 0 mm | - | 0 W/m² | - |
| 1778033688 | 20° C | 46% | 1005.9 hPa | 0 mm | - | 0 W/m² | - |
| 1778033385 | 20° C | 46% | 1006 hPa | 0 mm | - | 0 W/m² | - |
* Rain latest hour (hover to see other rain measurements)
** Current wind speed in m/s (hover to see current wind gust speed)